Time;durP1;ratioP1;P1;durP2;ratioP2;P2;SDS_P1;SDS_P2;PMS_P1;PMS_P2;Temp;Humidity;BMP_temperature;BMP_pressure;BME280_temperature;BME280_humidity;BME280_pressure;Samples;Min_cycle;Max_cycle;Signal;HPM_P1;HPM_P2
2021/03/17 00:02:06;;;;;;;0.23;0.23;;;13.70;72.30;;;;;;4195371;28;20056;-42
2021/03/17 00:04:46;;;;;;;0.00;0.00;;;13.70;72.40;;;;;;4195571;28;20757;-43
2021/03/17 00:07:26;;;;;;;0.00;0.00;;;13.70;72.40;;;;;;4195447;28;20102;-41
2021/03/17 00:10:07;;;;;;;0.00;0.00;;;13.70;72.50;;;;;;4179082;28;20411;-42
2021/03/17 00:12:48;;;;;;;0.08;0.05;;;13.70;72.50;;;;;;4193380;28;20048;-42
2021/03/17 00:15:30;;;;;;;0.10;0.10;;;13.70;72.70;;;;;;4195730;28;20514;-42
2021/03/17 00:18:13;;;;;;;0.20;0.20;;;13.70;72.60;;;;;;4195465;28;20161;-43
2021/03/17 00:20:52;;;;;;;0.00;0.00;;;13.70;72.70;;;;;;4195473;28;20582;-42
2021/03/17 00:23:32;;;;;;;0.00;0.00;;;13.70;72.70;;;;;;4178893;28;20507;-42
2021/03/17 00:26:12;;;;;;;0.00;0.00;;;13.60;72.70;;;;;;4179013;28;20478;-41
2021/03/17 00:28:51;;;;;;;0.98;0.70;;;13.60;72.80;;;;;;4190327;28;20419;-43
2021/03/17 00:31:32;;;;;;;0.00;0.00;;;13.60;72.80;;;;;;4194943;28;20044;-42
2021/03/17 00:34:12;;;;;;;0.00;0.00;;;13.60;72.80;;;;;;4195420;28;20139;-45
2021/03/17 00:36:52;;;;;;;1.65;1.35;;;13.60;72.90;;;;;;4198335;28;20552;-42
2021/03/17 00:39:31;;;;;;;0.00;0.00;;;13.60;72.70;;;;;;4198691;28;20082;-41
2021/03/17 00:42:12;;;;;;;0.00;0.00;;;13.60;72.70;;;;;;4198178;28;20044;-42
2021/03/17 00:44:51;;;;;;;0.00;0.00;;;13.50;72.60;;;;;;4198628;28;20052;-43
2021/03/17 00:47:32;;;;;;;0.00;0.00;;;13.50;72.50;;;;;;4198169;28;20225;-41
2021/03/17 00:49:53;;;;;;;0.00;0.00;;;13.50;72.50;;;;;;4198541;28;20106;-41
2021/03/17 00:52:17;;;;;;;0.00;0.00;;;13.40;72.50;;;;;;4198042;28;20082;-41
2021/03/17 00:54:56;;;;;;;0.00;0.00;;;13.40;72.50;;;;;;4198312;28;20600;-42
2021/03/17 00:57:28;;;;;;;0.00;0.00;;;13.40;72.50;;;;;;4197303;28;20129;-42
2021/03/17 00:59:49;;;;;;;0.00;0.00;;;13.40;72.60;;;;;;4197236;28;20506;-42
2021/03/17 01:02:10;;;;;;;0.00;0.00;;;13.40;72.70;;;;;;4197971;28;20049;-41
2021/03/17 01:04:32;;;;;;;0.00;0.00;;;13.40;72.80;;;;;;4198201;28;20418;-41
2021/03/17 01:06:54;;;;;;;0.00;0.00;;;13.40;72.90;;;;;;4197988;28;20569;-41
2021/03/17 01:09:15;;;;;;;0.00;0.00;;;13.40;72.90;;;;;;4181609;28;20449;-41
2021/03/17 01:11:36;;;;;;;0.00;0.00;;;13.40;72.90;;;;;;4190463;28;20078;-46
2021/03/17 01:13:57;;;;;;;0.00;0.00;;;13.40;73.00;;;;;;4198028;28;20131;-43
2021/03/17 01:16:18;;;;;;;0.00;0.00;;;13.30;73.00;;;;;;4198064;28;20052;-42
2021/03/17 01:18:39;;;;;;;4.07;0.85;;;13.30;73.10;;;;;;4197890;28;20088;-41
2021/03/17 01:21:01;;;;;;;0.88;0.85;;;13.40;73.10;;;;;;4197753;28;20037;-41
2021/03/17 01:23:22;;;;;;;;;;;13.30;73.10;;;;;;4198542;28;20078;-42
2021/03/17 01:25:46;;;;;;;0.00;0.00;;;13.30;73.20;;;;;;4197007;28;19925;-42
2021/03/17 01:28:09;;;;;;;0.00;0.00;;;13.40;73.30;;;;;;4197466;28;20845;-41
2021/03/17 01:30:35;;;;;;;0.00;0.00;;;13.40;73.20;;;;;;4197649;28;20131;-42
2021/03/17 01:33:00;;;;;;;0.00;0.00;;;13.40;73.30;;;;;;4197904;28;20110;-41
2021/03/17 01:35:48;;;;;;;0.00;0.00;;;13.30;73.30;;;;;;4197561;28;20289;-42
2021/03/17 01:38:30;;;;;;;0.00;0.00;;;13.40;73.30;;;;;;4197246;28;20163;-41
2021/03/17 01:41:10;;;;;;;0.00;0.00;;;13.40;73.30;;;;;;4197573;28;20059;-40
2021/03/17 01:43:50;;;;;;;0.00;0.00;;;13.40;73.30;;;;;;4197533;28;20055;-41
2021/03/17 01:46:11;;;;;;;0.00;0.00;;;13.40;73.20;;;;;;4196953;28;20048;-41
2021/03/17 01:48:32;;;;;;;0.00;0.00;;;13.30;73.20;;;;;;4197591;28;20052;-41
2021/03/17 01:50:54;;;;;;;;;;;13.30;73.20;;;;;;4197979;28;20446;-41
2021/03/17 01:53:18;;;;;;;0.00;0.00;;;13.40;73.40;;;;;;4197598;28;19920;-42
2021/03/17 01:55:41;;;;;;;0.00;0.00;;;13.30;73.20;;;;;;4197050;28;20046;-41
2021/03/17 01:58:02;;;;;;;0.00;0.00;;;13.30;73.20;;;;;;4195894;28;20622;-41
2021/03/17 02:00:24;;;;;;;;;;;13.30;73.20;;;;;;4197586;28;20041;-41
2021/03/17 02:02:49;;;;;;;0.00;0.00;;;13.30;73.40;;;;;;4197451;28;19936;-41
2021/03/17 02:05:13;;;;;;;0.00;0.00;;;13.30;73.30;;;;;;4197008;28;20048;-43
2021/03/17 02:07:34;;;;;;;0.00;0.00;;;13.30;73.30;;;;;;4197410;28;20400;-42
2021/03/17 02:09:55;;;;;;;0.00;0.00;;;13.30;73.30;;;;;;4197478;28;20053;-41
2021/03/17 02:12:31;;;;;;;0.00;0.00;;;13.30;73.40;;;;;;4197332;28;20127;-41
2021/03/17 02:15:11;;;;;;;0.00;0.00;;;13.30;73.30;;;;;;4196962;28;20414;-42
2021/03/17 02:17:37;;;;;;;0.00;0.00;;;13.30;73.20;;;;;;4196704;28;20498;-42
2021/03/17 02:20:46;;;;;;;0.00;0.00;;;13.30;73.20;;;;;;4197079;28;20064;-47
2021/03/17 02:23:18;;;;;;;0.00;0.00;;;13.40;73.30;;;;;;4197111;28;20056;-45
2021/03/17 02:25:57;;;;;;;;;;;13.30;73.20;;;;;;4197212;28;20119;-41
2021/03/17 02:28:29;;;;;;;0.00;0.00;;;13.30;73.30;;;;;;4197082;28;19943;-43
2021/03/17 02:31:24;;;;;;;0.00;0.00;;;13.30;73.10;;;;;;4196964;28;20597;-45
2021/03/17 02:33:51;;;;;;;;;;;13.30;73.30;;;;;;4181835;28;20055;-45
2021/03/17 02:36:15;;;;;;;2.08;1.48;;;13.20;73.30;;;;;;4196548;28;19920;-42
2021/03/17 02:38:45;;;;;;;0.00;0.00;;;13.20;74.20;;;;;;4184282;28;20525;-42
2021/03/17 02:41:12;;;;;;;0.00;0.00;;;13.20;73.50;;;;;;4196647;28;20063;-42
2021/03/17 02:43:40;;;;;;;0.00;0.00;;;13.10;73.60;;;;;;4196551;28;20060;-42
2021/03/17 02:46:08;;;;;;;0.20;0.20;;;13.10;73.70;;;;;;4196333;28;20078;-41
2021/03/17 02:48:36;;;;;;;0.00;0.00;;;13.10;73.80;;;;;;4196501;28;20047;-42
2021/03/17 02:51:05;;;;;;;0.00;0.00;;;13.10;73.80;;;;;;4196121;28;20054;-43
2021/03/17 02:53:28;;;;;;;0.00;0.00;;;13.10;73.90;;;;;;4179872;28;20505;-42
2021/03/17 02:55:56;;;;;;;0.00;0.00;;;13.00;73.90;;;;;;4179962;28;20059;-45
2021/03/17 02:58:19;;;;;;;0.00;0.00;;;13.00;74.80;;;;;;4177733;28;20057;-42
2021/03/17 03:00:44;;;;;;;0.00;0.00;;;13.00;74.00;;;;;;4182244;28;20056;-42
2021/03/17 03:03:07;;;;;;;0.00;0.00;;;13.00;74.00;;;;;;4195841;28;20430;-41
2021/03/17 03:05:29;;;;;;;0.00;0.00;;;13.00;74.00;;;;;;4196293;28;20082;-42
2021/03/17 03:07:53;;;;;;;0.00;0.00;;;13.00;74.00;;;;;;4196408;28;20495;-42
2021/03/17 03:10:16;;;;;;;0.00;0.00;;;13.00;74.10;;;;;;4196429;28;20052;-41
2021/03/17 03:12:38;;;;;;;0.00;0.00;;;13.00;74.00;;;;;;4196106;28;20127;-44
2021/03/17 03:14:59;;;;;;;0.00;0.00;;;13.00;74.80;;;;;;4196212;28;20424;-41
2021/03/17 03:17:21;;;;;;;0.00;0.00;;;12.90;73.90;;;;;;4196173;28;20410;-42
2021/03/17 03:19:45;;;;;;;;;;;12.90;73.70;;;;;;4196391;28;20048;-41
2021/03/17 03:22:08;;;;;;;0.00;0.00;;;12.90;73.90;;;;;;4195748;28;19932;-41
2021/03/17 03:24:30;;;;;;;0.00;0.00;;;12.90;73.90;;;;;;4195488;28;20080;-41
2021/03/17 03:26:54;;;;;;;0.00;0.00;;;12.90;73.90;;;;;;4196133;28;20400;-41
2021/03/17 03:29:16;;;;;;;0.00;0.00;;;12.80;73.90;;;;;;4196056;28;20076;-41
2021/03/17 03:31:37;;;;;;;0.00;0.00;;;12.80;74.00;;;;;;4195668;28;20687;-42
2021/03/17 03:33:59;;;;;;;0.00;0.00;;;12.80;74.00;;;;;;4194849;28;20053;-41
2021/03/17 03:36:20;;;;;;;0.00;0.00;;;12.80;74.90;;;;;;4195687;28;20047;-41
2021/03/17 03:38:41;;;;;;;0.00;0.00;;;12.80;74.00;;;;;;4195947;28;20134;-42
2021/03/17 03:41:04;;;;;;;0.00;0.00;;;12.80;74.10;;;;;;4195733;28;20059;-41
2021/03/17 03:43:25;;;;;;;0.00;0.00;;;12.80;74.20;;;;;;4194468;28;20056;-42
2021/03/17 03:45:45;;;;;;;0.00;0.00;;;12.80;74.20;;;;;;4195886;28;20052;-41
2021/03/17 03:48:08;;;;;;;0.00;0.00;;;12.80;74.20;;;;;;4196009;28;20487;-42
2021/03/17 03:50:30;;;;;;;0.00;0.00;;;12.80;74.20;;;;;;4195741;28;20055;-41
2021/03/17 03:53:06;;;;;;;0.00;0.00;;;12.70;74.30;;;;;;4194700;28;20076;-41
2021/03/17 03:55:30;;;;;;;0.00;0.00;;;12.70;75.10;;;;;;4195287;28;20049;-41
2021/03/17 03:57:53;;;;;;;0.00;0.00;;;12.70;74.20;;;;;;4195688;28;20048;-41
2021/03/17 04:00:17;;;;;;;0.00;0.00;;;12.70;74.20;;;;;;4195505;28;20056;-42
2021/03/17 04:02:43;;;;;;;0.00;0.00;;;12.70;74.20;;;;;;4195696;28;20055;-41
2021/03/17 04:05:05;;;;;;;0.00;0.00;;;12.70;74.30;;;;;;4195425;28;20048;-41
2021/03/17 04:07:29;;;;;;;0.00;0.00;;;12.70;74.40;;;;;;4195572;28;20063;-42
2021/03/17 04:09:52;;;;;;;0.00;0.00;;;12.80;74.40;;;;;;4195414;28;20415;-41
2021/03/17 04:12:14;;;;;;;0.00;0.00;;;12.70;74.30;;;;;;4195389;28;20569;-41
2021/03/17 04:14:37;;;;;;;0.55;0.55;;;12.70;74.40;;;;;;4195388;28;20055;-41
2021/03/17 04:17:03;;;;;;;0.00;0.00;;;12.70;74.30;;;;;;4195139;28;20048;-42
2021/03/17 04:19:25;;;;;;;0.00;0.00;;;12.70;74.30;;;;;;4195565;28;20063;-43
2021/03/17 04:21:47;;;;;;;0.00;0.00;;;12.70;74.40;;;;;;4191290;28;20082;-41
2021/03/17 04:24:09;;;;;;;0.00;0.00;;;12.70;74.40;;;;;;4177853;28;20153;-41
2021/03/17 04:26:33;;;;;;;0.00;0.00;;;12.70;74.40;;;;;;4178968;28;20060;-42
2021/03/17 04:28:56;;;;;;;0.00;0.00;;;12.70;74.40;;;;;;4178947;28;20087;-47
2021/03/17 04:31:18;;;;;;;0.00;0.00;;;12.80;74.40;;;;;;4188628;28;20053;-46
2021/03/17 04:33:40;;;;;;;0.00;0.00;;;12.80;74.30;;;;;;4195118;28;20049;-41
2021/03/17 04:36:02;;;;;;;0.00;0.00;;;12.80;74.30;;;;;;4195212;28;20052;-42
2021/03/17 04:38:25;;;;;;;0.00;0.00;;;12.80;74.20;;;;;;4195133;28;20053;-42
2021/03/17 04:40:47;;;;;;;0.00;0.00;;;12.80;74.20;;;;;;4195123;28;20527;-45
2021/03/17 04:43:10;;;;;;;0.00;0.00;;;12.80;74.10;;;;;;4194241;28;20154;-44
2021/03/17 04:45:32;;;;;;;0.00;0.00;;;12.80;74.10;;;;;;4195262;28;20059;-41
2021/03/17 04:47:54;;;;;;;0.00;0.00;;;12.80;74.30;;;;;;4195426;28;20396;-41
2021/03/17 04:50:17;;;;;;;0.00;0.00;;;12.80;74.20;;;;;;4195114;28;20148;-41
2021/03/17 04:52:40;;;;;;;0.00;0.00;;;12.80;74.10;;;;;;4195168;28;20053;-42
2021/03/17 04:55:01;;;;;;;0.00;0.00;;;12.80;74.10;;;;;;4195095;28;20083;-41
2021/03/17 04:57:27;;;;;;;0.08;0.08;;;12.80;74.10;;;;;;4195264;28;20052;-41
2021/03/17 04:59:50;;;;;;;0.00;0.00;;;12.80;74.20;;;;;;4195153;28;20060;-41
2021/03/17 05:02:12;;;;;;;0.05;0.05;;;12.80;74.30;;;;;;4178672;28;20444;-42
2021/03/17 05:04:36;;;;;;;0.00;0.00;;;12.80;74.30;;;;;;4178611;28;20128;-42
2021/03/17 05:06:58;;;;;;;0.00;0.00;;;12.70;74.30;;;;;;4178768;28;20064;-42
2021/03/17 05:09:20;;;;;;;0.00;0.00;;;12.70;74.30;;;;;;4178259;28;20132;-41
2021/03/17 05:11:42;;;;;;;0.00;0.00;;;12.70;74.40;;;;;;4193033;28;20075;-41
2021/03/17 05:14:05;;;;;;;0.00;0.00;;;12.70;74.40;;;;;;4194990;28;20045;-44
2021/03/17 05:16:27;;;;;;;0.80;0.65;;;12.70;74.50;;;;;;4195094;28;20461;-41
2021/03/17 05:18:49;;;;;;;0.00;0.00;;;12.70;74.60;;;;;;4181284;28;20494;-41
2021/03/17 05:21:13;;;;;;;0.00;0.00;;;12.70;74.70;;;;;;4195895;28;20048;-42
2021/03/17 05:23:33;;;;;;;0.00;0.00;;;12.60;74.80;;;;;;4197753;28;20487;-41
2021/03/17 05:25:55;;;;;;;0.00;0.00;;;12.60;74.90;;;;;;4198058;28;20056;-42
2021/03/17 05:28:18;;;;;;;0.00;0.00;;;12.60;74.80;;;;;;4197974;28;20055;-41
2021/03/17 05:30:40;;;;;;;0.00;0.00;;;12.60;74.70;;;;;;4197786;28;20131;-42
2021/03/17 05:33:02;;;;;;;0.00;0.00;;;12.60;74.70;;;;;;4197702;28;20048;-41
2021/03/17 05:35:24;;;;;;;0.00;0.00;;;12.60;74.80;;;;;;4197698;28;20044;-42
2021/03/17 05:37:46;;;;;;;;;;;12.60;74.80;;;;;;4197988;28;20053;-42
2021/03/17 05:40:09;;;;;;;0.00;0.00;;;12.60;74.80;;;;;;4181206;28;20473;-43
2021/03/17 05:42:30;;;;;;;0.00;0.00;;;12.60;74.80;;;;;;4180097;28;20130;-41
2021/03/17 05:44:52;;;;;;;0.00;0.00;;;12.60;74.80;;;;;;4181216;28;20049;-42
2021/03/17 05:47:14;;;;;;;0.00;0.00;;;12.60;74.80;;;;;;4186509;28;20048;-42
2021/03/17 05:49:35;;;;;;;0.00;0.00;;;12.60;74.80;;;;;;4197129;28;20596;-43
2021/03/17 05:51:56;;;;;;;0.00;0.00;;;12.60;74.80;;;;;;4197466;28;20059;-49
2021/03/17 05:54:18;;;;;;;0.00;0.00;;;12.60;74.80;;;;;;4197584;28;20125;-47
2021/03/17 05:56:41;;;;;;;0.00;0.00;;;12.60;74.80;;;;;;4197460;28;20052;-45
2021/03/17 05:59:03;;;;;;;0.00;0.00;;;12.60;74.80;;;;;;4197195;28;20074;-50
2021/03/17 06:01:24;;;;;;;;;;;12.60;74.80;;;;;;4197917;28;20053;-44
2021/03/17 06:03:47;;;;;;;0.00;0.00;;;12.60;74.90;;;;;;4197335;28;20389;-41
2021/03/17 06:06:13;;;;;;;0.00;0.00;;;12.60;74.80;;;;;;4197095;28;20226;-41
2021/03/17 06:08:39;;;;;;;0.00;0.00;;;12.60;74.70;;;;;;4197327;28;20499;-41
2021/03/17 06:11:01;;;;;;;0.00;0.00;;;12.60;74.70;;;;;;4196120;28;20086;-41
2021/03/17 06:13:24;;;;;;;0.00;0.00;;;12.60;74.70;;;;;;4197188;28;20056;-41
2021/03/17 06:15:52;;;;;;;0.00;0.00;;;12.60;74.70;;;;;;4196774;28;20510;-42
2021/03/17 06:18:23;;;;;;;0.00;0.00;;;12.60;74.60;;;;;;4196796;28;20048;-42
2021/03/17 06:20:45;;;;;;;0.00;0.00;;;12.60;74.70;;;;;;4196826;28;20087;-42
2021/03/17 06:23:06;;;;;;;0.00;0.00;;;12.60;75.00;;;;;;4196868;28;20143;-43
2021/03/17 06:25:28;;;;;;;0.00;0.00;;;12.70;75.60;;;;;;4193287;28;20688;-46
2021/03/17 06:27:51;;;;;;;0.00;0.00;;;12.60;75.60;;;;;;4180603;28;20052;-48
2021/03/17 06:30:13;;;;;;;3.72;1.88;;;12.70;75.80;;;;;;4191123;28;20533;-43
2021/03/17 06:32:34;;;;;;;0.00;0.00;;;12.70;76.10;;;;;;4196817;28;20056;-41
2021/03/17 06:34:55;;;;;;;0.52;0.52;;;12.70;77.30;;;;;;4196717;28;20051;-41
2021/03/17 06:37:17;;;;;;;0.00;0.00;;;12.80;76.80;;;;;;4196633;28;20138;-42
2021/03/17 06:39:37;;;;;;;;;;;12.80;76.40;;;;;;4196631;28;20052;-41
2021/03/17 06:41:58;;;;;;;0.00;0.00;;;12.80;76.00;;;;;;4196389;28;19997;-42
2021/03/17 06:44:22;;;;;;;0.00;0.00;;;12.70;75.80;;;;;;4193919;28;20143;-41
2021/03/17 06:46:43;;;;;;;0.00;0.00;;;12.70;76.70;;;;;;4195856;28;20156;-42
2021/03/17 06:49:05;;;;;;;1.55;1.45;;;12.70;76.50;;;;;;4185698;28;20044;-44
2021/03/17 06:51:29;;;;;;;0.00;0.00;;;12.70;76.10;;;;;;4196448;28;20234;-41
2021/03/17 06:53:52;;;;;;;0.00;0.00;;;12.70;75.90;;;;;;4196580;28;20059;-42
2021/03/17 06:56:21;;;;;;;0.13;0.13;;;12.60;75.90;;;;;;4195827;28;20059;-41
2021/03/17 06:58:44;;;;;;;0.00;0.00;;;12.60;75.80;;;;;;4195998;28;20139;-41
2021/03/17 07:01:22;;;;;;;0.00;0.00;;;12.60;75.70;;;;;;4196544;28;20057;-41
2021/03/17 07:03:43;;;;;;;0.00;0.00;;;12.50;75.40;;;;;;4196200;28;20074;-41
2021/03/17 07:06:09;;;;;;;;;;;12.50;75.30;;;;;;4196461;28;20044;-41
2021/03/17 07:08:31;;;;;;;0.00;0.00;;;12.50;75.20;;;;;;4179956;28;19925;-40
2021/03/17 07:10:57;;;;;;;0.00;0.00;;;12.50;75.20;;;;;;4184635;28;20067;-41
2021/03/17 07:13:18;;;;;;;0.00;0.00;;;12.40;74.90;;;;;;4196269;28;20045;-42
2021/03/17 07:15:39;;;;;;;0.00;0.00;;;12.40;74.70;;;;;;4196162;28;20426;-41
2021/03/17 07:18:15;;;;;;;0.00;0.00;;;12.40;74.70;;;;;;4196172;28;20048;-42
2021/03/17 07:20:37;;;;;;;0.03;0.03;;;12.40;74.40;;;;;;4195936;28;20052;-42
2021/03/17 07:23:15;;;;;;;0.00;0.00;;;12.50;74.30;;;;;;4179210;28;20056;-41
2021/03/17 07:25:36;;;;;;;0.00;0.00;;;12.50;74.20;;;;;;4179378;28;20159;-41
2021/03/17 07:27:57;;;;;;;0.00;0.00;;;12.50;74.20;;;;;;4179544;28;20057;-44
2021/03/17 07:30:18;;;;;;;0.10;0.10;;;12.50;74.10;;;;;;4179455;28;20057;-42
2021/03/17 07:32:56;;;;;;;0.00;0.00;;;12.50;74.10;;;;;;4179367;28;20080;-42
2021/03/17 07:35:29;;;;;;;0.00;0.00;;;12.50;74.00;;;;;;4179467;28;20057;-41
2021/03/17 07:38:02;;;;;;;0.00;0.00;;;12.50;73.90;;;;;;4179311;28;20408;-42
2021/03/17 07:40:23;;;;;;;0.00;0.00;;;12.50;73.70;;;;;;4195360;28;20056;-45
2021/03/17 07:42:44;;;;;;;0.00;0.00;;;12.40;73.50;;;;;;4195684;28;20139;-41
2021/03/17 07:45:06;;;;;;;;;;;12.40;73.50;;;;;;4196071;28;20060;-41
2021/03/17 07:47:27;;;;;;;3.00;1.05;;;12.40;74.20;;;;;;4195946;28;19928;-41
2021/03/17 07:49:49;;;;;;;0.00;0.00;;;12.40;73.80;;;;;;4195880;28;20052;-41
2021/03/17 07:52:17;;;;;;;0.22;0.22;;;12.40;73.70;;;;;;4195559;28;20132;-41
2021/03/17 07:54:39;;;;;;;2.20;0.77;;;12.50;74.10;;;;;;4195691;28;20415;-41
2021/03/17 07:57:01;;;;;;;0.20;0.20;;;12.50;74.10;;;;;;4195789;28;20064;-41
2021/03/17 07:59:23;;;;;;;0.00;0.00;;;12.50;73.50;;;;;;4196002;28;20063;-41
2021/03/17 08:01:44;;;;;;;0.00;0.00;;;12.50;73.30;;;;;;4195725;28;20487;-43
2021/03/17 08:04:06;;;;;;;0.00;0.00;;;12.50;72.90;;;;;;4195274;28;20052;-41
2021/03/17 08:06:28;;;;;;;0.00;0.00;;;12.50;72.60;;;;;;4195548;28;20060;-42
2021/03/17 08:08:51;;;;;;;0.00;0.00;;;12.50;72.30;;;;;;4195629;28;20355;-41
2021/03/17 08:11:17;;;;;;;0.00;0.00;;;12.50;72.10;;;;;;4195543;28;20059;-43
2021/03/17 08:13:40;;;;;;;0.10;0.10;;;12.50;71.70;;;;;;4195692;28;20052;-41
2021/03/17 08:16:01;;;;;;;0.10;0.10;;;12.50;71.40;;;;;;4195539;28;20487;-41
2021/03/17 08:18:42;;;;;;;0.00;0.00;;;12.50;70.80;;;;;;4189298;28;20053;-48
2021/03/17 08:21:04;;;;;;;0.47;0.47;;;12.50;70.40;;;;;;4195550;28;20052;-46
2021/03/17 08:23:38;;;;;;;0.47;0.47;;;12.50;70.30;;;;;;4195468;28;20049;-41
2021/03/17 08:26:00;;;;;;;0.00;0.00;;;12.50;69.70;;;;;;4195443;28;20126;-42
2021/03/17 08:28:22;;;;;;;0.00;0.00;;;12.50;69.60;;;;;;4195454;28;20083;-42
2021/03/17 08:30:43;;;;;;;4.47;0.50;;;12.40;69.20;;;;;;4195135;28;20056;-41
2021/03/17 08:33:04;;;;;;;0.00;0.00;;;12.40;69.20;;;;;;4195458;28;20049;-42
2021/03/17 08:36:03;;;;;;;0.00;0.00;;;12.40;69.10;;;;;;4195480;28;20495;-43
2021/03/17 08:38:42;;;;;;;0.00;0.00;;;12.40;69.90;;;;;;4195270;28;20074;-42
2021/03/17 08:41:04;;;;;;;0.00;0.00;;;12.50;69.00;;;;;;4195076;28;20139;-42
2021/03/17 08:43:45;;;;;;;0.35;0.35;;;12.50;68.80;;;;;;4191642;28;20495;-42
2021/03/17 08:46:06;;;;;;;0.00;0.00;;;12.50;68.40;;;;;;4178815;28;20319;-41
2021/03/17 08:49:02;;;;;;;0.00;0.00;;;12.50;68.30;;;;;;4178849;28;20491;-42
2021/03/17 08:52:02;;;;;;;0.00;0.00;;;12.50;68.10;;;;;;4178729;28;20053;-44
2021/03/17 08:55:00;;;;;;;0.00;0.00;;;12.40;67.80;;;;;;4178698;28;20132;-42
2021/03/17 08:57:22;;;;;;;0.00;0.00;;;12.40;67.90;;;;;;4181867;28;20049;-41
2021/03/17 08:59:44;;;;;;;0.00;0.00;;;12.40;68.00;;;;;;4191412;28;20110;-41
2021/03/17 09:02:16;;;;;;;0.00;0.00;;;12.50;67.90;;;;;;4197143;28;20044;-42
2021/03/17 09:04:44;;;;;;;;;;;12.50;67.40;;;;;;4198773;28;20127;-44
2021/03/17 09:07:07;;;;;;;0.00;0.00;;;12.50;67.10;;;;;;4198238;28;20404;-41
2021/03/17 09:09:45;;;;;;;0.03;0.03;;;12.50;67.00;;;;;;4198241;28;20053;-45
2021/03/17 09:12:06;;;;;;;1.65;1.55;;;12.40;66.90;;;;;;4198227;28;20131;-41
2021/03/17 09:14:32;;;;;;;0.00;0.00;;;12.40;66.80;;;;;;4197727;28;20049;-43
2021/03/17 09:17:12;;;;;;;2.45;0.90;;;12.40;66.80;;;;;;4198130;28;20048;-42
2021/03/17 09:19:54;;;;;;;0.00;0.00;;;12.40;66.70;;;;;;4181349;28;20462;-41
2021/03/17 09:22:35;;;;;;;0.00;0.00;;;12.50;66.80;;;;;;4181546;28;20061;-41
2021/03/17 09:24:55;;;;;;;0.15;0.15;;;12.50;66.80;;;;;;4181508;28;20053;-41
2021/03/17 09:27:16;;;;;;;4.88;3.30;;;12.50;66.70;;;;;;4181397;28;20103;-43
2021/03/17 09:29:38;;;;;;;;;;;12.50;66.70;;;;;;4181931;28;20080;-42
2021/03/17 09:32:00;;;;;;;0.00;0.00;;;12.50;66.90;;;;;;4181460;28;20390;-41
2021/03/17 09:34:26;;;;;;;1.02;1.02;;;12.50;67.00;;;;;;4181345;28;20049;-41
2021/03/17 09:36:47;;;;;;;0.05;0.05;;;12.60;67.80;;;;;;4181229;28;20106;-41
2021/03/17 09:39:08;;;;;;;0.52;0.52;;;12.60;66.80;;;;;;4181262;28;20053;-42
2021/03/17 09:41:34;;;;;;;0.00;0.00;;;12.60;66.80;;;;;;4181287;28;20423;-43
2021/03/17 09:43:56;;;;;;;0.00;0.00;;;12.60;66.90;;;;;;4181246;28;20098;-44
2021/03/17 09:46:28;;;;;;;0.00;0.00;;;12.60;66.60;;;;;;4196531;28;20055;-42
2021/03/17 09:48:51;;;;;;;;;;;12.60;66.40;;;;;;4192766;28;20052;-41
2021/03/17 09:51:16;;;;;;;1.85;1.17;;;12.60;66.20;;;;;;4197728;28;20369;-42
2021/03/17 09:53:38;;;;;;;0.00;0.00;;;12.70;66.20;;;;;;4197536;28;20048;-41
2021/03/17 09:55:58;;;;;;;0.00;0.00;;;12.70;66.20;;;;;;4197591;28;20491;-42
2021/03/17 09:58:21;;;;;;;0.17;0.17;;;12.70;66.10;;;;;;4197547;28;20131;-41
2021/03/17 10:00:47;;;;;;;0.00;0.00;;;12.80;66.00;;;;;;4197402;28;20067;-42
2021/03/17 10:03:12;;;;;;;0.00;0.00;;;12.80;65.70;;;;;;4197453;28;20155;-42
2021/03/17 10:05:33;;;;;;;0.00;0.00;;;12.80;65.70;;;;;;4197493;28;20507;-41
2021/03/17 10:07:54;;;;;;;0.00;0.00;;;12.90;65.60;;;;;;4197096;28;20048;-49
2021/03/17 10:10:16;;;;;;;0.00;0.00;;;12.80;65.10;;;;;;4197392;28;20434;-46
2021/03/17 10:12:37;;;;;;;0.00;0.00;;;12.80;64.60;;;;;;4197342;28;20049;-45
2021/03/17 10:15:00;;;;;;;0.00;0.00;;;12.80;64.40;;;;;;4197206;28;20123;-46
2021/03/17 10:17:22;;;;;;;0.00;0.00;;;12.80;64.10;;;;;;4197325;28;20049;-42
2021/03/17 10:19:49;;;;;;;0.00;0.00;;;12.80;63.90;;;;;;4194545;28;20083;-41
2021/03/17 10:22:10;;;;;;;0.00;0.00;;;12.70;64.20;;;;;;4197217;28;20498;-42
2021/03/17 10:24:33;;;;;;;0.00;0.00;;;12.70;64.00;;;;;;4197148;28;20053;-42
2021/03/17 10:26:55;;;;;;;0.00;0.00;;;12.70;63.70;;;;;;4197089;28;20056;-42
2021/03/17 10:29:17;;;;;;;0.00;0.00;;;12.70;63.50;;;;;;4197131;28;20048;-41
2021/03/17 10:31:39;;;;;;;0.00;0.00;;;12.70;63.60;;;;;;4197110;28;20080;-42
2021/03/17 10:34:00;;;;;;;0.00;0.00;;;12.80;63.60;;;;;;4196647;28;20051;-41
2021/03/17 10:36:23;;;;;;;0.00;0.00;;;12.80;63.40;;;;;;4196951;28;20509;-41
2021/03/17 10:38:49;;;;;;;;;;;12.80;63.40;;;;;;4197050;28;20083;-42
2021/03/17 10:41:10;;;;;;;0.00;0.00;;;12.80;63.50;;;;;;4196886;28;19924;-41
2021/03/17 10:43:32;;;;;;;0.00;0.00;;;12.80;63.60;;;;;;4196823;28;20056;-41
2021/03/17 10:45:54;;;;;;;0.00;0.00;;;12.80;63.60;;;;;;4196670;28;20090;-42
2021/03/17 10:48:16;;;;;;;0.00;0.00;;;12.80;63.30;;;;;;4196826;28;20418;-40
2021/03/17 10:50:38;;;;;;;0.00;0.00;;;12.90;63.40;;;;;;4196613;28;20131;-41
2021/03/17 10:53:01;;;;;;;0.00;0.00;;;12.90;63.10;;;;;;4195125;28;20132;-41
2021/03/17 10:55:24;;;;;;;0.00;0.00;;;12.90;63.00;;;;;;4196240;28;20554;-41
2021/03/17 10:57:47;;;;;;;0.00;0.00;;;13.00;62.80;;;;;;4195560;28;20057;-41
2021/03/17 11:00:21;;;;;;;0.20;0.20;;;13.00;62.80;;;;;;4195957;28;20052;-41
2021/03/17 11:02:42;;;;;;;0.00;0.00;;;13.00;62.40;;;;;;4196001;28;20467;-41
2021/03/17 11:05:07;;;;;;;0.00;0.00;;;13.00;62.50;;;;;;4195749;28;20064;-41
2021/03/17 11:07:28;;;;;;;0.00;0.00;;;13.00;62.50;;;;;;4187321;28;20049;-41
2021/03/17 11:09:51;;;;;;;;;;;13.00;62.10;;;;;;4196692;28;20056;-41
2021/03/17 11:12:12;;;;;;;0.00;0.00;;;13.00;61.80;;;;;;4196136;28;20626;-41
2021/03/17 11:14:34;;;;;;;0.00;0.00;;;13.00;61.70;;;;;;4196434;28;20048;-41
2021/03/17 11:16:54;;;;;;;;;;;13.00;61.90;;;;;;4196760;28;20426;-42
2021/03/17 11:19:16;;;;;;;7.85;0.73;;;13.10;61.70;;;;;;4195279;28;19924;-44
2021/03/17 11:21:39;;;;;;;0.00;0.00;;;13.00;61.90;;;;;;4196049;28;20060;-42
2021/03/17 11:24:01;;;;;;;0.00;0.00;;;13.00;61.90;;;;;;4195644;28;20059;-41
2021/03/17 11:26:30;;;;;;;9.15;0.47;;;13.00;61.40;;;;;;4192783;28;20148;-41
2021/03/17 11:28:52;;;;;;;0.00;0.00;;;13.00;61.40;;;;;;4196157;28;20059;-41
2021/03/17 11:31:21;;;;;;;0.13;0.13;;;13.00;61.50;;;;;;4195573;28;20056;-41
2021/03/17 11:33:42;;;;;;;0.00;0.00;;;13.00;61.50;;;;;;4192283;28;20203;-41
2021/03/17 11:36:06;;;;;;;0.10;0.10;;;13.00;61.80;;;;;;4195656;28;20502;-41
2021/03/17 11:38:28;;;;;;;0.00;0.00;;;13.00;61.20;;;;;;4179372;28;20061;-41
2021/03/17 11:40:51;;;;;;;39.05;1.40;;;13.00;60.90;;;;;;4194051;28;20095;-43
2021/03/17 11:43:15;;;;;;;0.08;0.08;;;13.00;60.80;;;;;;4195903;28;20427;-41
2021/03/17 11:45:37;;;;;;;0.00;0.00;;;13.00;60.70;;;;;;4195974;28;20509;-41
2021/03/17 11:47:59;;;;;;;0.00;0.00;;;13.00;60.60;;;;;;4196005;28;20048;-42
2021/03/17 11:50:20;;;;;;;0.00;0.00;;;13.00;60.60;;;;;;4194901;28;20052;-41
2021/03/17 11:52:44;;;;;;;0.00;0.00;;;12.90;60.60;;;;;;4195002;28;20049;-41
2021/03/17 11:55:06;;;;;;;;;;;13.00;60.90;;;;;;4182343;28;20149;-41
2021/03/17 11:57:27;;;;;;;0.00;0.00;;;12.90;61.00;;;;;;4195032;28;20265;-41
2021/03/17 11:59:49;;;;;;;0.00;0.00;;;12.90;61.30;;;;;;4195521;28;20056;-46
2021/03/17 12:02:10;;;;;;;0.00;0.00;;;12.90;61.30;;;;;;4195567;28;20586;-42
2021/03/17 12:04:31;;;;;;;0.00;0.00;;;12.90;61.30;;;;;;4195464;28;20439;-46
2021/03/17 12:06:52;;;;;;;0.00;0.00;;;12.90;61.40;;;;;;4195727;28;20044;-45
2021/03/17 12:09:14;;;;;;;0.00;0.00;;;12.90;61.50;;;;;;4195784;28;20053;-44
2021/03/17 12:11:35;;;;;;;0.00;0.00;;;13.00;61.30;;;;;;4195710;28;20154;-47
2021/03/17 12:13:56;;;;;;;0.00;0.00;;;12.90;61.20;;;;;;4195512;28;20087;-47
2021/03/17 12:16:18;;;;;;;0.35;0.35;;;12.90;61.40;;;;;;4195458;28;20829;-45
2021/03/17 12:18:38;;;;;;;0.38;0.38;;;12.90;61.50;;;;;;4195608;28;20060;-45
2021/03/17 12:21:00;;;;;;;0.00;0.00;;;12.90;61.50;;;;;;4195589;28;20063;-42
2021/03/17 12:23:20;;;;;;;0.00;0.00;;;12.90;61.20;;;;;;4195604;28;20106;-43
2021/03/17 12:25:41;;;;;;;0.00;0.00;;;12.90;61.40;;;;;;4195486;28;20130;-41
2021/03/17 12:28:03;;;;;;;0.00;0.00;;;12.90;61.30;;;;;;4195487;28;20044;-42
2021/03/17 12:30:25;;;;;;;0.00;0.00;;;12.90;61.30;;;;;;4197323;28;20487;-41
2021/03/17 12:32:49;;;;;;;0.10;0.10;;;12.90;61.20;;;;;;4198886;28;20083;-41
2021/03/17 12:35:11;;;;;;;0.00;0.00;;;12.90;61.10;;;;;;4197731;28;20053;-41
2021/03/17 12:37:33;;;;;;;0.00;0.00;;;12.90;61.00;;;;;;4198549;28;20143;-41
2021/03/17 12:39:55;;;;;;;0.00;0.00;;;12.90;60.80;;;;;;4198656;28;20052;-42
2021/03/17 12:42:17;;;;;;;0.00;0.00;;;12.90;61.00;;;;;;4198539;28;20284;-41